KCBK/CBK METAR and TAF weather

Enter ICAO airport designator
Station Type Date Time Source
KCBK METAR 2019/02/21 11:35 UTC NOAA

KCBK 211135Z AUTO 10007KT 10SM CLR M08/M12 A2990 RMK AO2


Station Type Date Time Source
KCBK Decoded METAR 2019/02/21 11:35 UTC NOAA

Station name not available
Feb 21, 2019 - 06:35 AM EST / 2019.02.21 1135 UTC
Wind: from the E (100 degrees) at 8 MPH (7 KT):0
Visibility: 10 mile(s):0
Sky conditions: clear
Temperature: 17 F (-8 C)
Windchill: 6 F (-14 C):1
Dew Point: 10 F (-12 C)
Relative Humidity: 72%
Pressure (altimeter): 29.9 in. Hg (1012 hPa)
ob: KCBK 211135Z AUTO 10007KT 10SM CLR M08/M12 A2990 RMK AO2
cycle: 11

Station Type Date Time Source
KCBK TAF UTC NOAA

Error!


Example: see airport list